JA86GR NZTU-NZWB
Flight info
| Callsign | JA86GR |
|---|---|
| Flight time | N/A |
| Altitude | 25000 |
| Route | ELDAK Y255 ODOWD Y819 ELPIT |
| Aircraft | HDJT/L-SABDGRWY/H |
Departure
| Time | 2026-04-19 08:03 |
|---|---|
| Airport | Timaru Airport (NZTU) |
Arrival
| Time | N/A |
|---|---|
| Airport | Woodbourne Airport (NZWB) |
| Time | Latitude | Longitude | Altitude | Speed | Heading |
|---|---|---|---|---|---|
| 2026-04-19 07:40 | -44.30292 | 171.22490 | 83 ft | 0 kts | 80° |
| 2026-04-19 08:00 | -44.30291 | 171.22494 | 75 ft | 4 kts | 71° |
| 2026-04-19 08:00 | -44.30268 | 171.22493 | 83 ft | 8 kts | 323° |
| 2026-04-19 08:01 | -44.30209 | 171.22401 | 84 ft | 15 kts | 310° |
| 2026-04-19 08:01 | -44.30159 | 171.22321 | 82 ft | 4 kts | 282° |
| 2026-04-19 08:01 | -44.30172 | 171.22277 | 85 ft | 9 kts | 240° |
| 2026-04-19 08:01 | -44.30212 | 171.22222 | 83 ft | 6 kts | 219° |
| 2026-04-19 08:02 | -44.30239 | 171.22167 | 82 ft | 12 kts | 233° |
| 2026-04-19 08:02 | -44.30305 | 171.22077 | 81 ft | 11 kts | 161° |
| 2026-04-19 08:02 | -44.30315 | 171.22100 | 81 ft | 1 kts | 25° |
| 2026-04-19 08:02 | -44.30296 | 171.22107 | 81 ft | 6 kts | 23° |
| 2026-04-19 08:03 | -44.30125 | 171.22293 | 85 ft | 67 kts | 41° |
| 2026-04-19 08:03 | -44.29605 | 171.22966 | 84 ft | 134 kts | 44° |
| 2026-04-19 08:03 | -44.28884 | 171.23851 | 578 ft | 151 kts | 39° |
| 2026-04-19 08:03 | -44.27990 | 171.24840 | 761 ft | 178 kts | 43° |
| 2026-04-19 08:04 | -44.27012 | 171.26085 | 922 ft | 201 kts | 45° |
| 2026-04-19 08:04 | -44.25916 | 171.27462 | 1363 ft | 218 kts | 44° |
| 2026-04-19 08:04 | -44.24782 | 171.28833 | 2372 ft | 221 kts | 45° |
| 2026-04-19 08:04 | -44.23595 | 171.30296 | 3267 ft | 227 kts | 45° |
| 2026-04-19 08:05 | -44.22418 | 171.31741 | 4339 ft | 227 kts | 44° |
| 2026-04-19 08:05 | -44.21216 | 171.33223 | 5306 ft | 231 kts | 44° |
| 2026-04-19 08:05 | -44.20018 | 171.34701 | 6283 ft | 233 kts | 44° |
| 2026-04-19 08:05 | -44.18862 | 171.36305 | 7215 ft | 233 kts | 52° |
| 2026-04-19 08:06 | -44.17832 | 171.38032 | 8162 ft | 234 kts | 51° |
| 2026-04-19 08:06 | -44.16755 | 171.39773 | 9126 ft | 236 kts | 50° |
| 2026-04-19 08:06 | -44.15685 | 171.41486 | 10037 ft | 237 kts | 49° |
| 2026-04-19 08:06 | -44.14597 | 171.43244 | 10881 ft | 240 kts | 50° |
| 2026-04-19 08:07 | -44.13498 | 171.45021 | 11716 ft | 243 kts | 50° |
| 2026-04-19 08:07 | -44.12399 | 171.46791 | 12541 ft | 245 kts | 49° |
| 2026-04-19 08:07 | -44.11268 | 171.48607 | 13373 ft | 248 kts | 50° |
| 2026-04-19 08:07 | -44.10132 | 171.50441 | 14117 ft | 251 kts | 50° |
| 2026-04-19 08:08 | -44.08998 | 171.52269 | 14831 ft | 253 kts | 50° |
| 2026-04-19 08:08 | -44.07828 | 171.54145 | 15556 ft | 256 kts | 49° |
| 2026-04-19 08:08 | -44.06664 | 171.56013 | 16271 ft | 258 kts | 49° |
| 2026-04-19 08:08 | -44.05472 | 171.57921 | 16992 ft | 261 kts | 49° |
| 2026-04-19 08:09 | -44.04286 | 171.59823 | 17696 ft | 264 kts | 49° |
| 2026-04-19 08:09 | -44.03070 | 171.61776 | 18358 ft | 267 kts | 49° |
| 2026-04-19 08:09 | -44.01855 | 171.63717 | 18961 ft | 269 kts | 49° |
| 2026-04-19 08:09 | -44.00617 | 171.65700 | 19565 ft | 272 kts | 49° |
| 2026-04-19 08:10 | -43.99385 | 171.67679 | 20160 ft | 274 kts | 48° |
| 2026-04-19 08:10 | -43.98118 | 171.69698 | 20770 ft | 277 kts | 47° |
| 2026-04-19 08:10 | -43.96842 | 171.71729 | 21387 ft | 279 kts | 47° |
| 2026-04-19 08:10 | -43.95576 | 171.73754 | 21991 ft | 281 kts | 47° |
| 2026-04-19 08:11 | -43.94279 | 171.75831 | 22597 ft | 284 kts | 47° |
| 2026-04-19 08:11 | -43.92992 | 171.77882 | 23189 ft | 286 kts | 46° |
| 2026-04-19 08:11 | -43.91628 | 171.79923 | 23711 ft | 288 kts | 39° |
| 2026-04-19 08:11 | -43.90058 | 171.81679 | 24228 ft | 289 kts | 36° |
| 2026-04-19 08:12 | -43.88523 | 171.83443 | 24753 ft | 291 kts | 36° |
| 2026-04-19 08:12 | -43.86913 | 171.85310 | 24797 ft | 309 kts | 36° |
| 2026-04-19 08:12 | -43.85204 | 171.87261 | 24808 ft | 326 kts | 36° |
| 2026-04-19 08:12 | -43.83409 | 171.89311 | 24809 ft | 341 kts | 36° |
| 2026-04-19 08:13 | -43.81560 | 171.91431 | 24807 ft | 353 kts | 37° |
| 2026-04-19 08:13 | -43.80289 | 171.92885 | 24805 ft | 360 kts | 37° |
| 2026-04-19 08:13 | -43.78332 | 171.95130 | 24804 ft | 368 kts | 37° |
| 2026-04-19 08:13 | -43.75672 | 171.98153 | 24799 ft | 373 kts | 37° |
| 2026-04-19 08:14 | -43.74346 | 171.99662 | 24799 ft | 371 kts | 37° |
| 2026-04-19 08:14 | -43.70338 | 172.04218 | 24797 ft | 370 kts | 36° |
| 2026-04-19 08:14 | -43.68367 | 172.06449 | 24795 ft | 371 kts | 36° |
| 2026-04-19 08:15 | -43.66373 | 172.08725 | 24794 ft | 371 kts | 36° |
| 2026-04-19 08:15 | -43.64377 | 172.10987 | 24793 ft | 370 kts | 36° |
| 2026-04-19 08:15 | -43.62367 | 172.13257 | 24788 ft | 370 kts | 36° |
| 2026-04-19 08:15 | -43.60395 | 172.15494 | 24783 ft | 370 kts | 36° |
| 2026-04-19 08:16 | -43.58395 | 172.17759 | 24775 ft | 370 kts | 36° |
| 2026-04-19 08:16 | -43.56420 | 172.19986 | 24773 ft | 370 kts | 36° |
| 2026-04-19 08:16 | -43.54415 | 172.22247 | 24769 ft | 370 kts | 36° |
| 2026-04-19 08:16 | -43.52411 | 172.24516 | 24766 ft | 370 kts | 36° |
| 2026-04-19 08:17 | -43.50429 | 172.26748 | 24764 ft | 370 kts | 35° |
| 2026-04-19 08:17 | -43.48426 | 172.28997 | 24758 ft | 370 kts | 35° |
| 2026-04-19 08:17 | -43.46448 | 172.31226 | 24753 ft | 370 kts | 35° |
| 2026-04-19 08:17 | -43.44452 | 172.33474 | 24754 ft | 370 kts | 35° |
| 2026-04-19 08:18 | -43.42453 | 172.35716 | 24752 ft | 370 kts | 35° |
| 2026-04-19 08:18 | -43.40449 | 172.37961 | 24749 ft | 370 kts | 35° |
| 2026-04-19 08:18 | -43.38472 | 172.40182 | 24750 ft | 370 kts | 35° |